<?xml version="1.0" encoding="UTF-8" standalone="no" ?><gpx xmlns="http://www.topografix.com/GPX/1/1" xmlns:gpxx="http://www.garmin.com/xmlschemas/GpxExtensions/v3" xmlns:gpxtrkx="http://www.garmin.com/xmlschemas/TrackStatsExtension/v1" xmlns:wptx1="http://www.garmin.com/xmlschemas/WaypointExtension/v1" xmlns:gpxtpx="http://www.garmin.com/xmlschemas/TrackPointExtension/v1" creator="Oregon 700" version="1.1" xmlns:xsi="http://www.w3.org/2001/XMLSchema-instance" xsi:schemaLocation="http://www.topografix.com/GPX/1/1 http://www.topografix.com/GPX/1/1/gpx.xsd http://www.garmin.com/xmlschemas/GpxExtensions/v3 http://www8.garmin.com/xmlschemas/GpxExtensionsv3.xsd http://www.garmin.com/xmlschemas/TrackStatsExtension/v1 http://www8.garmin.com/xmlschemas/TrackStatsExtension.xsd http://www.garmin.com/xmlschemas/WaypointExtension/v1 http://www8.garmin.com/xmlschemas/WaypointExtensionv1.xsd http://www.garmin.com/xmlschemas/TrackPointExtension/v1 http://www.garmin.com/xmlschemas/TrackPointExtensionv1.xsd"><metadata><link href="http://www.garmin.com"><text>Garmin International</text></link><time>2023-09-27T19:58:12Z</time></metadata><trk><name>Current Track: 27 SEP 2023 09:58</name><extensions><gpxx:TrackExtension><gpxx:DisplayColor>Cyan</gpxx:DisplayColor></gpxx:TrackExtension><gpxtrkx:TrackStatsExtension><gpxtrkx:Distance>4755.000</gpxtrkx:Distance><gpxtrkx:TimerTime>8662</gpxtrkx:TimerTime><gpxtrkx:TotalElapsedTime>39570</gpxtrkx:TotalElapsedTime><gpxtrkx:MovingTime>7503</gpxtrkx:MovingTime><gpxtrkx:StoppedTime>1160</gpxtrkx:StoppedTime><gpxtrkx:MovingSpeed>0.634</gpxtrkx:MovingSpeed><gpxtrkx:MaxSpeed>1.424</gpxtrkx:MaxSpeed><gpxtrkx:MaxElevation>154.224</gpxtrkx:MaxElevation><gpxtrkx:MinElevation>50.207</gpxtrkx:MinElevation><gpxtrkx:Ascent>145.000</gpxtrkx:Ascent><gpxtrkx:Descent>124.553</gpxtrkx:Descent><gpxtrkx:AvgAscentRate>0.051</gpxtrkx:AvgAscentRate><gpxtrkx:MaxAscentRate>0.121</gpxtrkx:MaxAscentRate><gpxtrkx:AvgDescentRate>0.060</gpxtrkx:AvgDescentRate><gpxtrkx:MaxDescentRate>-0.159</gpxtrkx:MaxDescentRate><gpxtrkx:Calories>222</gpxtrkx:Calories></gpxtrkx:TrackStatsExtension></extensions><trkseg><trkpt lat="51.7382688727" lon="-2.1601025295"><ele>128.74</ele><time>2023-09-27T08:58:43Z</time></trkpt><trkpt lat="51.7382725608" lon="-2.1600490529"><ele>129.99</ele><time>2023-09-27T08:59:09Z</time></trkpt><trkpt lat="51.7382930964" lon="-2.1599551756"><ele>128.21</ele><time>2023-09-27T08:59:29Z</time></trkpt><trkpt lat="51.7382803559" lon="-2.1597901359"><ele>129.93</ele><time>2023-09-27T08:59:49Z</time></trkpt><trkpt lat="51.7383593135" lon="-2.1596783213"><ele>130.20</ele><time>2023-09-27T09:00:06Z</time></trkpt><trkpt lat="51.7384677753" lon="-2.1595022175"><ele>129.32</ele><time>2023-09-27T09:00:27Z</time></trkpt><trkpt lat="51.7385552824" lon="-2.1593268681"><ele>127.30</ele><time>2023-09-27T09:00:50Z</time></trkpt><trkpt lat="51.7385881394" lon="-2.1591889020"><ele>126.61</ele><time>2023-09-27T09:01:11Z</time></trkpt><trkpt lat="51.7386250198" lon="-2.1589976270"><ele>124.67</ele><time>2023-09-27T09:01:28Z</time></trkpt><trkpt lat="51.7387155443" lon="-2.1588223614"><ele>123.02</ele><time>2023-09-27T09:01:47Z</time></trkpt><trkpt lat="51.7387670930" lon="-2.1587467566"><ele>122.62</ele><time>2023-09-27T09:02:03Z</time></trkpt><trkpt lat="51.7388147861" lon="-2.1586787794"><ele>122.59</ele><time>2023-09-27T09:02:20Z</time></trkpt><trkpt lat="51.7388351541" lon="-2.1586630214"><ele>122.31</ele><time>2023-09-27T09:02:43Z</time></trkpt><trkpt lat="51.7388468888" lon="-2.1586273983"><ele>122.20</ele><time>2023-09-27T09:03:05Z</time></trkpt><trkpt lat="51.7389256787" lon="-2.1584649570"><ele>122.20</ele><time>2023-09-27T09:03:29Z</time></trkpt><trkpt lat="51.7390601244" lon="-2.1583207045"><ele>122.20</ele><time>2023-09-27T09:03:56Z</time></trkpt><trkpt lat="51.7390783969" lon="-2.1583283320"><ele>122.20</ele><time>2023-09-27T09:04:19Z</time></trkpt><trkpt lat="51.7390889581" lon="-2.1583098918"><ele>122.20</ele><time>2023-09-27T09:04:25Z</time></trkpt><trkpt lat="51.7391671613" lon="-2.1581653878"><ele>122.20</ele><time>2023-09-27T09:04:45Z</time></trkpt><trkpt lat="51.7392004374" lon="-2.1581477020"><ele>122.20</ele><time>2023-09-27T09:05:07Z</time></trkpt><trkpt lat="51.7391016148" lon="-2.1581838280"><ele>122.20</ele><time>2023-09-27T09:05:27Z</time></trkpt><trkpt lat="51.7390517425" lon="-2.1582060400"><ele>122.20</ele><time>2023-09-27T09:05:43Z</time></trkpt><trkpt lat="51.7391121760" lon="-2.1581555810"><ele>122.20</ele><time>2023-09-27T09:05:58Z</time></trkpt><trkpt lat="51.7392630503" lon="-2.1579794772"><ele>120.77</ele><time>2023-09-27T09:06:17Z</time></trkpt><trkpt lat="51.7392780539" lon="-2.1579840872"><ele>120.33</ele><time>2023-09-27T09:06:36Z</time></trkpt><trkpt lat="51.7392855138" lon="-2.1580119152"><ele>120.64</ele><time>2023-09-27T09:07:00Z</time></trkpt><trkpt lat="51.7393318657" lon="-2.1578861028"><ele>120.86</ele><time>2023-09-27T09:07:16Z</time></trkpt><trkpt lat="51.7394475359" lon="-2.1578260045"><ele>119.30</ele><time>2023-09-27T09:07:36Z</time></trkpt><trkpt lat="51.7394792195" lon="-2.1576601267"><ele>121.00</ele><time>2023-09-27T09:07:54Z</time></trkpt><trkpt lat="51.7395495437" lon="-2.1575933229"><ele>122.71</ele><time>2023-09-27T09:08:16Z</time></trkpt><trkpt lat="51.7395535670" lon="-2.1575913951"><ele>122.79</ele><time>2023-09-27T09:08:17Z</time></trkpt><trkpt lat="51.7396367993" lon="-2.1575245913"><ele>123.22</ele><time>2023-09-27T09:08:33Z</time></trkpt><trkpt lat="51.7397558223" lon="-2.1573645808"><ele>125.11</ele><time>2023-09-27T09:08:53Z</time></trkpt><trkpt lat="51.7398925312" lon="-2.1572547778"><ele>126.73</ele><time>2023-09-27T09:09:17Z</time></trkpt><trkpt lat="51.7399340216" lon="-2.1572186518"><ele>127.80</ele><time>2023-09-27T09:09:36Z</time></trkpt><trkpt lat="51.7399818823" lon="-2.1571691986"><ele>129.05</ele><time>2023-09-27T09:09:55Z</time></trkpt><trkpt lat="51.7400571518" lon="-2.1571449749"><ele>129.31</ele><time>2023-09-27T09:10:17Z</time></trkpt><trkpt lat="51.7400971334" lon="-2.1570857987"><ele>130.76</ele><time>2023-09-27T09:10:37Z</time></trkpt><trkpt lat="51.7401466705" lon="-2.1571251936"><ele>131.04</ele><time>2023-09-27T09:11:07Z</time></trkpt><trkpt lat="51.7402622569" lon="-2.1571857110"><ele>132.09</ele><time>2023-09-27T09:11:26Z</time></trkpt><trkpt lat="51.7402335908" lon="-2.1570683643"><ele>133.44</ele><time>2023-09-27T09:11:44Z</time></trkpt><trkpt lat="51.7402045894" lon="-2.1570127085"><ele>133.85</ele><time>2023-09-27T09:12:13Z</time></trkpt><trkpt lat="51.7401913460" lon="-2.1570203360"><ele>134.69</ele><time>2023-09-27T09:12:37Z</time></trkpt><trkpt lat="51.7401630152" lon="-2.1569628362"><ele>135.01</ele><time>2023-09-27T09:12:56Z</time></trkpt><trkpt lat="51.7402928509" lon="-2.1568639297"><ele>137.02</ele><time>2023-09-27T09:13:20Z</time></trkpt><trkpt lat="51.7404300626" lon="-2.1567917615"><ele>137.43</ele><time>2023-09-27T09:13:40Z</time></trkpt><trkpt lat="51.7406001315" lon="-2.1566820424"><ele>137.21</ele><time>2023-09-27T09:14:02Z</time></trkpt><trkpt lat="51.7406981997" lon="-2.1566109639"><ele>137.32</ele><time>2023-09-27T09:14:17Z</time></trkpt><trkpt lat="51.7407878861" lon="-2.1565302461"><ele>137.41</ele><time>2023-09-27T09:14:36Z</time></trkpt><trkpt lat="51.7409162130" lon="-2.1564572398"><ele>137.31</ele><time>2023-09-27T09:14:53Z</time></trkpt><trkpt lat="51.7410835158" lon="-2.1563610155"><ele>137.09</ele><time>2023-09-27T09:15:16Z</time></trkpt><trkpt lat="51.7412349768" lon="-2.1562542301"><ele>136.43</ele><time>2023-09-27T09:15:39Z</time></trkpt><trkpt lat="51.7413687520" lon="-2.1561361291"><ele>135.76</ele><time>2023-09-27T09:15:59Z</time></trkpt><trkpt lat="51.7414770462" lon="-2.1560370550"><ele>135.77</ele><time>2023-09-27T09:16:16Z</time></trkpt><trkpt lat="51.7415890284" lon="-2.1559237316"><ele>135.22</ele><time>2023-09-27T09:16:36Z</time></trkpt><trkpt lat="51.7416502163" lon="-2.1558537427"><ele>135.35</ele><time>2023-09-27T09:16:56Z</time></trkpt><trkpt lat="51.7416974902" lon="-2.1557702590"><ele>135.42</ele><time>2023-09-27T09:17:03Z</time></trkpt><trkpt lat="51.7418027669" lon="-2.1555450372"><ele>135.66</ele><time>2023-09-27T09:17:22Z</time></trkpt><trkpt lat="51.7418880947" lon="-2.1553553548"><ele>135.93</ele><time>2023-09-27T09:17:41Z</time></trkpt><trkpt lat="51.7419449240" lon="-2.1551593021"><ele>135.57</ele><time>2023-09-27T09:18:00Z</time></trkpt><trkpt lat="51.7420464288" lon="-2.1550079249"><ele>135.08</ele><time>2023-09-27T09:18:21Z</time></trkpt><trkpt lat="51.7421146575" lon="-2.1550255269"><ele>135.10</ele><time>2023-09-27T09:18:49Z</time></trkpt><trkpt lat="51.7421965487" lon="-2.1551407780"><ele>135.10</ele><time>2023-09-27T09:19:13Z</time></trkpt><trkpt lat="51.7422743328" lon="-2.1551163029"><ele>132.25</ele><time>2023-09-27T09:19:31Z</time></trkpt><trkpt lat="51.7423878238" lon="-2.1551360004"><ele>130.81</ele><time>2023-09-27T09:19:54Z</time></trkpt><trkpt lat="51.7424952798" lon="-2.1551716235"><ele>129.03</ele><time>2023-09-27T09:20:17Z</time></trkpt><trkpt lat="51.7425825354" lon="-2.1552527603"><ele>127.46</ele><time>2023-09-27T09:20:41Z</time></trkpt><trkpt lat="51.7426821124" lon="-2.1553368308"><ele>124.95</ele><time>2023-09-27T09:21:05Z</time></trkpt><trkpt lat="51.7427778337" lon="-2.1553963423"><ele>122.34</ele><time>2023-09-27T09:21:27Z</time></trkpt><trkpt lat="51.7429138720" lon="-2.1554219071"><ele>120.35</ele><time>2023-09-27T09:21:52Z</time></trkpt><trkpt lat="51.7430577893" lon="-2.1554713603"><ele>117.93</ele><time>2023-09-27T09:22:20Z</time></trkpt><trkpt lat="51.7430715356" lon="-2.1554637328"><ele>116.72</ele><time>2023-09-27T09:22:44Z</time></trkpt><trkpt lat="51.7431065720" lon="-2.1554828435"><ele>117.07</ele><time>2023-09-27T09:23:06Z</time></trkpt><trkpt lat="51.7431509122" lon="-2.1555748768"><ele>116.66</ele><time>2023-09-27T09:23:27Z</time></trkpt><trkpt lat="51.7432044726" lon="-2.1556190494"><ele>115.54</ele><time>2023-09-27T09:23:42Z</time></trkpt><trkpt lat="51.7432403471" lon="-2.1556938998"><ele>114.59</ele><time>2023-09-27T09:24:03Z</time></trkpt><trkpt lat="51.7432815023" lon="-2.1557359770"><ele>113.33</ele><time>2023-09-27T09:24:20Z</time></trkpt><trkpt lat="51.7433355656" lon="-2.1558311954"><ele>111.57</ele><time>2023-09-27T09:24:44Z</time></trkpt><trkpt lat="51.7433664110" lon="-2.1560158487"><ele>110.55</ele><time>2023-09-27T09:25:01Z</time></trkpt><trkpt lat="51.7433861084" lon="-2.1560911182"><ele>109.36</ele><time>2023-09-27T09:25:19Z</time></trkpt><trkpt lat="51.7433794029" lon="-2.1562310960"><ele>108.65</ele><time>2023-09-27T09:25:42Z</time></trkpt><trkpt lat="51.7433519103" lon="-2.1563839819"><ele>107.77</ele><time>2023-09-27T09:26:04Z</time></trkpt><trkpt lat="51.7433456238" lon="-2.1564542223"><ele>107.39</ele><time>2023-09-27T09:26:26Z</time></trkpt><trkpt lat="51.7433095817" lon="-2.1567037515"><ele>106.64</ele><time>2023-09-27T09:26:51Z</time></trkpt><trkpt lat="51.7432598770" lon="-2.1569324099"><ele>106.47</ele><time>2023-09-27T09:27:13Z</time></trkpt><trkpt lat="51.7431858648" lon="-2.1571666840"><ele>106.64</ele><time>2023-09-27T09:27:36Z</time></trkpt><trkpt lat="51.7431217432" lon="-2.1573769860"><ele>106.62</ele><time>2023-09-27T09:27:57Z</time></trkpt><trkpt lat="51.7430927418" lon="-2.1575491503"><ele>106.63</ele><time>2023-09-27T09:28:14Z</time></trkpt><trkpt lat="51.7429634929" lon="-2.1577700134"><ele>106.77</ele><time>2023-09-27T09:28:39Z</time></trkpt><trkpt lat="51.7428969406" lon="-2.1579033695"><ele>106.33</ele><time>2023-09-27T09:28:57Z</time></trkpt><trkpt lat="51.7428577133" lon="-2.1580690797"><ele>106.13</ele><time>2023-09-27T09:29:18Z</time></trkpt><trkpt lat="51.7428639159" lon="-2.1581420861"><ele>105.67</ele><time>2023-09-27T09:29:40Z</time></trkpt><trkpt lat="51.7428693641" lon="-2.1582192834"><ele>105.15</ele><time>2023-09-27T09:30:05Z</time></trkpt><trkpt lat="51.7429038137" lon="-2.1582232229"><ele>104.12</ele><time>2023-09-27T09:30:25Z</time></trkpt><trkpt lat="51.7429387663" lon="-2.1581575926"><ele>103.73</ele><time>2023-09-27T09:30:45Z</time></trkpt><trkpt lat="51.7430019658" lon="-2.1580085624"><ele>103.75</ele><time>2023-09-27T09:31:01Z</time></trkpt><trkpt lat="51.7430478148" lon="-2.1578731108"><ele>103.85</ele><time>2023-09-27T09:31:14Z</time></trkpt><trkpt lat="51.7431074101" lon="-2.1577449515"><ele>103.90</ele><time>2023-09-27T09:31:27Z</time></trkpt><trkpt lat="51.7431602161" lon="-2.1575728711"><ele>103.83</ele><time>2023-09-27T09:31:42Z</time></trkpt><trkpt lat="51.7432126030" lon="-2.1574165486"><ele>103.65</ele><time>2023-09-27T09:31:58Z</time></trkpt><trkpt lat="51.7432516627" lon="-2.1573214140"><ele>103.65</ele><time>2023-09-27T09:32:13Z</time></trkpt><trkpt lat="51.7432960030" lon="-2.1572168078"><ele>102.12</ele><time>2023-09-27T09:32:24Z</time></trkpt><trkpt lat="51.7433637287" lon="-2.1571021434"><ele>100.23</ele><time>2023-09-27T09:32:39Z</time></trkpt><trkpt lat="51.7434355617" lon="-2.1570363455"><ele>97.69</ele><time>2023-09-27T09:32:54Z</time></trkpt><trkpt lat="51.7435073107" lon="-2.1570267901"><ele>95.88</ele><time>2023-09-27T09:33:17Z</time></trkpt><trkpt lat="51.7435608711" lon="-2.1570040751"><ele>95.02</ele><time>2023-09-27T09:33:45Z</time></trkpt><trkpt lat="51.7436619569" lon="-2.1569314878"><ele>92.75</ele><time>2023-09-27T09:34:07Z</time></trkpt><trkpt lat="51.7437526491" lon="-2.1568270493"><ele>90.93</ele><time>2023-09-27T09:34:20Z</time></trkpt><trkpt lat="51.7438789643" lon="-2.1568058431"><ele>88.48</ele><time>2023-09-27T09:34:41Z</time></trkpt><trkpt lat="51.7439546529" lon="-2.1568060108"><ele>86.18</ele><time>2023-09-27T09:34:56Z</time></trkpt><trkpt lat="51.7440440040" lon="-2.1566129755"><ele>83.14</ele><time>2023-09-27T09:35:18Z</time></trkpt><trkpt lat="51.7441189382" lon="-2.1564459242"><ele>81.69</ele><time>2023-09-27T09:35:34Z</time></trkpt><trkpt lat="51.7442058586" lon="-2.1563154180"><ele>79.60</ele><time>2023-09-27T09:35:52Z</time></trkpt><trkpt lat="51.7442580778" lon="-2.1562056150"><ele>77.78</ele><time>2023-09-27T09:36:05Z</time></trkpt><trkpt lat="51.7443107162" lon="-2.1560684871"><ele>75.59</ele><time>2023-09-27T09:36:22Z</time></trkpt><trkpt lat="51.7443603370" lon="-2.1558617894"><ele>73.98</ele><time>2023-09-27T09:36:38Z</time></trkpt><trkpt lat="51.7444004864" lon="-2.1557594463"><ele>72.93</ele><time>2023-09-27T09:36:53Z</time></trkpt><trkpt lat="51.7444755882" lon="-2.1557134297"><ele>73.09</ele><time>2023-09-27T09:37:11Z</time></trkpt><trkpt lat="51.7444820423" lon="-2.1556762978"><ele>71.84</ele><time>2023-09-27T09:37:29Z</time></trkpt><trkpt lat="51.7445165757" lon="-2.1556607075"><ele>70.89</ele><time>2023-09-27T09:37:44Z</time></trkpt><trkpt lat="51.7446114589" lon="-2.1556163672"><ele>70.68</ele><time>2023-09-27T09:38:01Z</time></trkpt><trkpt lat="51.7446488421" lon="-2.1556059737"><ele>71.04</ele><time>2023-09-27T09:38:20Z</time></trkpt><trkpt lat="51.7447101977" lon="-2.1554899681"><ele>72.06</ele><time>2023-09-27T09:38:41Z</time></trkpt><trkpt lat="51.7447374389" lon="-2.1554747969"><ele>73.12</ele><time>2023-09-27T09:38:59Z</time></trkpt><trkpt lat="51.7447696254" lon="-2.1554525010"><ele>73.32</ele><time>2023-09-27T09:39:21Z</time></trkpt><trkpt lat="51.7447800189" lon="-2.1554740425"><ele>73.39</ele><time>2023-09-27T09:39:48Z</time></trkpt><trkpt lat="51.7447583098" lon="-2.1556262579"><ele>73.30</ele><time>2023-09-27T09:40:07Z</time></trkpt><trkpt lat="51.7447484192" lon="-2.1556953248"><ele>73.30</ele><time>2023-09-27T09:40:28Z</time></trkpt><trkpt lat="51.7447358463" lon="-2.1557358932"><ele>73.30</ele><time>2023-09-27T09:40:52Z</time></trkpt><trkpt lat="51.7447214294" lon="-2.1558850072"><ele>73.30</ele><time>2023-09-27T09:41:14Z</time></trkpt><trkpt lat="51.7447480839" lon="-2.1559761185"><ele>73.30</ele><time>2023-09-27T09:41:31Z</time></trkpt><trkpt lat="51.7448156420" lon="-2.1561370511"><ele>73.30</ele><time>2023-09-27T09:41:51Z</time></trkpt><trkpt lat="51.7448555399" lon="-2.1562139969"><ele>73.30</ele><time>2023-09-27T09:42:04Z</time></trkpt><trkpt lat="51.7449054122" lon="-2.1563046891"><ele>73.30</ele><time>2023-09-27T09:42:23Z</time></trkpt><trkpt lat="51.7449245229" lon="-2.1564161684"><ele>73.30</ele><time>2023-09-27T09:42:45Z</time></trkpt><trkpt lat="51.7449385207" lon="-2.1564318426"><ele>70.70</ele><time>2023-09-27T09:42:55Z</time></trkpt><trkpt lat="51.7449582182" lon="-2.1564813796"><ele>69.96</ele><time>2023-09-27T09:43:19Z</time></trkpt><trkpt lat="51.7449320666" lon="-2.1566362772"><ele>69.49</ele><time>2023-09-27T09:43:44Z</time></trkpt><trkpt lat="51.7448716331" lon="-2.1568050049"><ele>68.34</ele><time>2023-09-27T09:43:56Z</time></trkpt><trkpt lat="51.7448582221" lon="-2.1571565419"><ele>66.34</ele><time>2023-09-27T09:44:22Z</time></trkpt><trkpt lat="51.7448359262" lon="-2.1574078314"><ele>65.84</ele><time>2023-09-27T09:44:42Z</time></trkpt><trkpt lat="51.7448289692" lon="-2.1575324703"><ele>65.52</ele><time>2023-09-27T09:44:54Z</time></trkpt><trkpt lat="51.7448197491" lon="-2.1576677542"><ele>64.58</ele><time>2023-09-27T09:45:07Z</time></trkpt><trkpt lat="51.7448139656" lon="-2.1577954106"><ele>63.64</ele><time>2023-09-27T09:45:22Z</time></trkpt><trkpt lat="51.7447697092" lon="-2.1579828300"><ele>62.33</ele><time>2023-09-27T09:45:37Z</time></trkpt><trkpt lat="51.7446770053" lon="-2.1580839157"><ele>61.88</ele><time>2023-09-27T09:45:50Z</time></trkpt><trkpt lat="51.7446797714" lon="-2.1581596043"><ele>61.54</ele><time>2023-09-27T09:46:06Z</time></trkpt><trkpt lat="51.7446451541" lon="-2.1583316009"><ele>61.12</ele><time>2023-09-27T09:46:24Z</time></trkpt><trkpt lat="51.7446889076" lon="-2.1585100517"><ele>61.61</ele><time>2023-09-27T09:46:41Z</time></trkpt><trkpt lat="51.7446758319" lon="-2.1586287394"><ele>61.25</ele><time>2023-09-27T09:47:05Z</time></trkpt><trkpt lat="51.7445942760" lon="-2.1587721538"><ele>61.25</ele><time>2023-09-27T09:47:23Z</time></trkpt><trkpt lat="51.7444516160" lon="-2.1590538695"><ele>60.67</ele><time>2023-09-27T09:47:51Z</time></trkpt><trkpt lat="51.7443517037" lon="-2.1591939311"><ele>60.05</ele><time>2023-09-27T09:48:12Z</time></trkpt><trkpt lat="51.7442964669" lon="-2.1593184024"><ele>59.80</ele><time>2023-09-27T09:48:31Z</time></trkpt><trkpt lat="51.7442770209" lon="-2.1594115254"><ele>59.75</ele><time>2023-09-27T09:48:36Z</time></trkpt><trkpt lat="51.7442036793" lon="-2.1595951729"><ele>59.76</ele><time>2023-09-27T09:48:51Z</time></trkpt><trkpt lat="51.7441809643" lon="-2.1596367471"><ele>59.74</ele><time>2023-09-27T09:48:56Z</time></trkpt><trkpt lat="51.7441391386" lon="-2.1597939078"><ele>59.64</ele><time>2023-09-27T09:49:15Z</time></trkpt><trkpt lat="51.7441155016" lon="-2.1599978395"><ele>60.11</ele><time>2023-09-27T09:49:33Z</time></trkpt><trkpt lat="51.7440891825" lon="-2.1600868553"><ele>60.16</ele><time>2023-09-27T09:49:53Z</time></trkpt><trkpt lat="51.7439916171" lon="-2.1601482946"><ele>59.81</ele><time>2023-09-27T09:50:07Z</time></trkpt><trkpt lat="51.7439339496" lon="-2.1602998395"><ele>59.74</ele><time>2023-09-27T09:50:20Z</time></trkpt><trkpt lat="51.7437843326" lon="-2.1604855824"><ele>59.65</ele><time>2023-09-27T09:50:40Z</time></trkpt><trkpt lat="51.7437414173" lon="-2.1606263146"><ele>60.12</ele><time>2023-09-27T09:50:58Z</time></trkpt><trkpt lat="51.7437160201" lon="-2.1606714930"><ele>60.12</ele><time>2023-09-27T09:51:19Z</time></trkpt><trkpt lat="51.7436385714" lon="-2.1607019193"><ele>60.12</ele><time>2023-09-27T09:51:39Z</time></trkpt><trkpt lat="51.7435987573" lon="-2.1607190184"><ele>60.12</ele><time>2023-09-27T09:52:00Z</time></trkpt><trkpt lat="51.7435651459" lon="-2.1607023384"><ele>60.12</ele><time>2023-09-27T09:52:18Z</time></trkpt><trkpt lat="51.7435007729" lon="-2.1606883407"><ele>60.12</ele><time>2023-09-27T09:52:40Z</time></trkpt><trkpt lat="51.7434033751" lon="-2.1606823895"><ele>60.88</ele><time>2023-09-27T09:52:52Z</time></trkpt><trkpt lat="51.7431906424" lon="-2.1607153304"><ele>62.33</ele><time>2023-09-27T09:53:10Z</time></trkpt><trkpt lat="51.7430479825" lon="-2.1607414819"><ele>63.64</ele><time>2023-09-27T09:53:25Z</time></trkpt><trkpt lat="51.7429923266" lon="-2.1607477684"><ele>64.75</ele><time>2023-09-27T09:53:45Z</time></trkpt><trkpt lat="51.7429110222" lon="-2.1608688869"><ele>65.13</ele><time>2023-09-27T09:54:01Z</time></trkpt><trkpt lat="51.7428617366" lon="-2.1609943639"><ele>66.19</ele><time>2023-09-27T09:54:17Z</time></trkpt><trkpt lat="51.7428416200" lon="-2.1610610839"><ele>66.50</ele><time>2023-09-27T09:54:35Z</time></trkpt><trkpt lat="51.7427754030" lon="-2.1611874830"><ele>66.77</ele><time>2023-09-27T09:55:12Z</time></trkpt><trkpt lat="51.7426662706" lon="-2.1612366010"><ele>67.08</ele><time>2023-09-27T09:55:30Z</time></trkpt><trkpt lat="51.7426324077" lon="-2.1612611599"><ele>67.59</ele><time>2023-09-27T09:55:50Z</time></trkpt><trkpt lat="51.7424744088" lon="-2.1614208352"><ele>67.89</ele><time>2023-09-27T09:56:13Z</time></trkpt><trkpt lat="51.7423830461" lon="-2.1615038160"><ele>67.87</ele><time>2023-09-27T09:56:29Z</time></trkpt><trkpt lat="51.7423424777" lon="-2.1615717933"><ele>67.47</ele><time>2023-09-27T09:56:41Z</time></trkpt><trkpt lat="51.7422340997" lon="-2.1616798360"><ele>67.01</ele><time>2023-09-27T09:56:58Z</time></trkpt><trkpt lat="51.7421073653" lon="-2.1617478132"><ele>66.35</ele><time>2023-09-27T09:57:17Z</time></trkpt><trkpt lat="51.7419343628" lon="-2.1617282834"><ele>65.77</ele><time>2023-09-27T09:57:35Z</time></trkpt><trkpt lat="51.7418823950" lon="-2.1617756411"><ele>65.46</ele><time>2023-09-27T09:57:46Z</time></trkpt><trkpt lat="51.7417575046" lon="-2.1617815085"><ele>65.24</ele><time>2023-09-27T09:58:05Z</time></trkpt><trkpt lat="51.7416865099" lon="-2.1618476417"><ele>64.87</ele><time>2023-09-27T09:58:18Z</time></trkpt><trkpt lat="51.7415600270" lon="-2.1618830971"><ele>64.73</ele><time>2023-09-27T09:58:35Z</time></trkpt><trkpt lat="51.7414658144" lon="-2.1619281080"><ele>64.07</ele><time>2023-09-27T09:58:49Z</time></trkpt><trkpt lat="51.7413835041" lon="-2.1619727835"><ele>63.56</ele><time>2023-09-27T09:59:04Z</time></trkpt><trkpt lat="51.7412845977" lon="-2.1619920619"><ele>62.94</ele><time>2023-09-27T09:59:17Z</time></trkpt><trkpt lat="51.7411388364" lon="-2.1619684249"><ele>62.72</ele><time>2023-09-27T09:59:34Z</time></trkpt><trkpt lat="51.7410457972" lon="-2.1620374080"><ele>62.31</ele><time>2023-09-27T09:59:47Z</time></trkpt><trkpt lat="51.7409848608" lon="-2.1621091571"><ele>61.93</ele><time>2023-09-27T09:59:59Z</time></trkpt><trkpt lat="51.7409188952" lon="-2.1621773019"><ele>61.28</ele><time>2023-09-27T10:00:17Z</time></trkpt><trkpt lat="51.7408929113" lon="-2.1621567663"><ele>61.05</ele><time>2023-09-27T10:00:47Z</time></trkpt><trkpt lat="51.7408802547" lon="-2.1621053014"><ele>61.23</ele><time>2023-09-27T10:01:15Z</time></trkpt><trkpt lat="51.7408898938" lon="-2.1621571854"><ele>61.23</ele><time>2023-09-27T10:01:44Z</time></trkpt><trkpt lat="51.7409351561" lon="-2.1622349694"><ele>61.23</ele><time>2023-09-27T10:02:13Z</time></trkpt><trkpt lat="51.7409512494" lon="-2.1622498054"><ele>61.23</ele><time>2023-09-27T10:02:39Z</time></trkpt><trkpt lat="51.7409269419" lon="-2.1622551698"><ele>61.23</ele><time>2023-09-27T10:03:07Z</time></trkpt><trkpt lat="51.7409298755" lon="-2.1622535773"><ele>61.23</ele><time>2023-09-27T10:03:32Z</time></trkpt><trkpt lat="51.7408805899" lon="-2.1622665692"><ele>61.23</ele><time>2023-09-27T10:04:02Z</time></trkpt><trkpt lat="51.7409215774" lon="-2.1622504760"><ele>61.23</ele><time>2023-09-27T10:04:28Z</time></trkpt><trkpt lat="51.7409912311" lon="-2.1621442772"><ele>61.23</ele><time>2023-09-27T10:04:54Z</time></trkpt><trkpt lat="51.7409760598" lon="-2.1621700097"><ele>61.23</ele><time>2023-09-27T10:05:24Z</time></trkpt><trkpt lat="51.7409192305" lon="-2.1622335445"><ele>61.23</ele><time>2023-09-27T10:05:50Z</time></trkpt><trkpt lat="51.7409158777" lon="-2.1622193791"><ele>61.23</ele><time>2023-09-27T10:06:16Z</time></trkpt><trkpt lat="51.7409091722" lon="-2.1622637194"><ele>61.23</ele><time>2023-09-27T10:06:54Z</time></trkpt><trkpt lat="51.7409157101" lon="-2.1623194590"><ele>61.23</ele><time>2023-09-27T10:07:22Z</time></trkpt><trkpt lat="51.7409605533" lon="-2.1622671559"><ele>61.23</ele><time>2023-09-27T10:07:42Z</time></trkpt><trkpt lat="51.7409510817" lon="-2.1622709278"><ele>61.23</ele><time>2023-09-27T10:08:06Z</time></trkpt><trkpt lat="51.7409168836" lon="-2.1622021962"><ele>61.23</ele><time>2023-09-27T10:08:28Z</time></trkpt><trkpt lat="51.7409699410" lon="-2.1622890327"><ele>61.23</ele><time>2023-09-27T10:08:44Z</time></trkpt><trkpt lat="51.7409779038" lon="-2.1622648090"><ele>61.23</ele><time>2023-09-27T10:09:12Z</time></trkpt><trkpt lat="51.7410164606" lon="-2.1622419264"><ele>61.23</ele><time>2023-09-27T10:09:43Z</time></trkpt><trkpt lat="51.7410084140" lon="-2.1621992625"><ele>61.23</ele><time>2023-09-27T10:10:07Z</time></trkpt><trkpt lat="51.7409889679" lon="-2.1622197144"><ele>61.23</ele><time>2023-09-27T10:10:31Z</time></trkpt><trkpt lat="51.7409728747" lon="-2.1623218898"><ele>61.23</ele><time>2023-09-27T10:10:56Z</time></trkpt><trkpt lat="51.7409843579" lon="-2.1623167768"><ele>61.23</ele><time>2023-09-27T10:11:24Z</time></trkpt><trkpt lat="51.7409681808" lon="-2.1622213908"><ele>61.23</ele><time>2023-09-27T10:11:51Z</time></trkpt><trkpt lat="51.7409738805" lon="-2.1622306108"><ele>61.23</ele><time>2023-09-27T10:12:15Z</time></trkpt><trkpt lat="51.7410096712" lon="-2.1622711793"><ele>61.23</ele><time>2023-09-27T10:12:40Z</time></trkpt><trkpt lat="51.7409778200" lon="-2.1622805670"><ele>61.23</ele><time>2023-09-27T10:13:07Z</time></trkpt><trkpt lat="51.7409542669" lon="-2.1623465326"><ele>61.23</ele><time>2023-09-27T10:13:31Z</time></trkpt><trkpt lat="51.7409479804" lon="-2.1623845864"><ele>61.23</ele><time>2023-09-27T10:14:00Z</time></trkpt><trkpt lat="51.7409691028" lon="-2.1622969117"><ele>61.23</ele><time>2023-09-27T10:14:27Z</time></trkpt><trkpt lat="51.7409249302" lon="-2.1622800641"><ele>61.23</ele><time>2023-09-27T10:14:53Z</time></trkpt><trkpt lat="51.7408944201" lon="-2.1622752864"><ele>61.23</ele><time>2023-09-27T10:15:22Z</time></trkpt><trkpt lat="51.7408826016" lon="-2.1622442733"><ele>61.23</ele><time>2023-09-27T10:15:50Z</time></trkpt><trkpt lat="51.7409154586" lon="-2.1623687446"><ele>61.23</ele><time>2023-09-27T10:16:15Z</time></trkpt><trkpt lat="51.7409870401" lon="-2.1623559203"><ele>61.51</ele><time>2023-09-27T10:16:34Z</time></trkpt><trkpt lat="51.7409600504" lon="-2.1623197105"><ele>63.70</ele><time>2023-09-27T10:16:47Z</time></trkpt><trkpt lat="51.7409888841" lon="-2.1623826586"><ele>63.85</ele><time>2023-09-27T10:17:10Z</time></trkpt><trkpt lat="51.7410000321" lon="-2.1624004282"><ele>63.91</ele><time>2023-09-27T10:17:15Z</time></trkpt><trkpt lat="51.7410012055" lon="-2.1624104865"><ele>63.92</ele><time>2023-09-27T10:17:24Z</time></trkpt><trkpt lat="51.7409995291" lon="-2.1623930521"><ele>63.68</ele><time>2023-09-27T10:17:35Z</time></trkpt><trkpt lat="51.7409882974" lon="-2.1624057926"><ele>63.69</ele><time>2023-09-27T10:17:43Z</time></trkpt><trkpt lat="51.7409763951" lon="-2.1624280047"><ele>63.65</ele><time>2023-09-27T10:17:50Z</time></trkpt><trkpt lat="51.7409405205" lon="-2.1623749472"><ele>63.65</ele><time>2023-09-27T10:18:08Z</time></trkpt><trkpt lat="51.7409582064" lon="-2.1623275895"><ele>64.15</ele><time>2023-09-27T10:18:30Z</time></trkpt><trkpt lat="51.7409820948" lon="-2.1623052936"><ele>64.17</ele><time>2023-09-27T10:18:58Z</time></trkpt><trkpt lat="51.7409549374" lon="-2.1623590216"><ele>64.06</ele><time>2023-09-27T10:19:26Z</time></trkpt><trkpt lat="51.7408972699" lon="-2.1623250749"><ele>63.78</ele><time>2023-09-27T10:19:50Z</time></trkpt><trkpt lat="51.7409464717" lon="-2.1623759530"><ele>63.78</ele><time>2023-09-27T10:20:19Z</time></trkpt><trkpt lat="51.7410219088" lon="-2.1624749433"><ele>63.78</ele><time>2023-09-27T10:20:42Z</time></trkpt><trkpt lat="51.7409685999" lon="-2.1624133363"><ele>63.78</ele><time>2023-09-27T10:21:09Z</time></trkpt><trkpt lat="51.7409316357" lon="-2.1623852570"><ele>63.78</ele><time>2023-09-27T10:21:35Z</time></trkpt><trkpt lat="51.7409203202" lon="-2.1623281762"><ele>63.78</ele><time>2023-09-27T10:22:10Z</time></trkpt><trkpt lat="51.7409373354" lon="-2.1622857638"><ele>63.78</ele><time>2023-09-27T10:22:41Z</time></trkpt><trkpt lat="51.7409518361" lon="-2.1622455306"><ele>63.78</ele><time>2023-09-27T10:23:03Z</time></trkpt><trkpt lat="51.7409049813" lon="-2.1621406730"><ele>63.78</ele><time>2023-09-27T10:23:28Z</time></trkpt><trkpt lat="51.7409320548" lon="-2.1622006036"><ele>64.90</ele><time>2023-09-27T10:23:49Z</time></trkpt><trkpt lat="51.7409503274" lon="-2.1621508151"><ele>65.35</ele><time>2023-09-27T10:24:13Z</time></trkpt><trkpt lat="51.7409004550" lon="-2.1621151920"><ele>65.43</ele><time>2023-09-27T10:24:34Z</time></trkpt><trkpt lat="51.7408659216" lon="-2.1620706841"><ele>65.39</ele><time>2023-09-27T10:24:55Z</time></trkpt><trkpt lat="51.7407776602" lon="-2.1619752981"><ele>65.39</ele><time>2023-09-27T10:25:17Z</time></trkpt><trkpt lat="51.7407189030" lon="-2.1618913952"><ele>65.39</ele><time>2023-09-27T10:25:33Z</time></trkpt><trkpt lat="51.7406508420" lon="-2.1618722007"><ele>65.39</ele><time>2023-09-27T10:25:52Z</time></trkpt><trkpt lat="51.7404612433" lon="-2.1617589612"><ele>65.39</ele><time>2023-09-27T10:26:12Z</time></trkpt><trkpt lat="51.7404200044" lon="-2.1617368329"><ele>65.39</ele><time>2023-09-27T10:26:30Z</time></trkpt><trkpt lat="51.7404420488" lon="-2.1617551893"><ele>69.03</ele><time>2023-09-27T10:26:51Z</time></trkpt><trkpt lat="51.7404394504" lon="-2.1617546864"><ele>69.02</ele><time>2023-09-27T10:26:52Z</time></trkpt><trkpt lat="51.7404402047" lon="-2.1617662534"><ele>68.60</ele><time>2023-09-27T10:27:17Z</time></trkpt><trkpt lat="51.7404209264" lon="-2.1617479809"><ele>69.55</ele><time>2023-09-27T10:27:43Z</time></trkpt><trkpt lat="51.7403963674" lon="-2.1617137827"><ele>68.00</ele><time>2023-09-27T10:28:20Z</time></trkpt><trkpt lat="51.7404061742" lon="-2.1617100108"><ele>68.00</ele><time>2023-09-27T10:28:56Z</time></trkpt><trkpt lat="51.7404031567" lon="-2.1617269423"><ele>68.00</ele><time>2023-09-27T10:29:35Z</time></trkpt><trkpt lat="51.7404340021" lon="-2.1617263556"><ele>68.00</ele><time>2023-09-27T10:30:02Z</time></trkpt><trkpt lat="51.7405537795" lon="-2.1617788263"><ele>68.00</ele><time>2023-09-27T10:30:26Z</time></trkpt><trkpt lat="51.7406912427" lon="-2.1619410161"><ele>68.00</ele><time>2023-09-27T10:30:49Z</time></trkpt><trkpt lat="51.7407265306" lon="-2.1619647369"><ele>64.39</ele><time>2023-09-27T10:30:55Z</time></trkpt><trkpt lat="51.7407317273" lon="-2.1619671676"><ele>64.28</ele><time>2023-09-27T10:30:56Z</time></trkpt><trkpt lat="51.7408447992" lon="-2.1620656550"><ele>64.10</ele><time>2023-09-27T10:31:17Z</time></trkpt><trkpt lat="51.7408946715" lon="-2.1622843388"><ele>64.84</ele><time>2023-09-27T10:31:37Z</time></trkpt><trkpt lat="51.7408622336" lon="-2.1622820757"><ele>63.87</ele><time>2023-09-27T10:31:58Z</time></trkpt><trkpt lat="51.7408810090" lon="-2.1622309461"><ele>63.87</ele><time>2023-09-27T10:32:23Z</time></trkpt><trkpt lat="51.7408621497" lon="-2.1622157749"><ele>64.18</ele><time>2023-09-27T10:32:45Z</time></trkpt><trkpt lat="51.7408099305" lon="-2.1622686647"><ele>62.45</ele><time>2023-09-27T10:33:07Z</time></trkpt><trkpt lat="51.7407252733" lon="-2.1624021884"><ele>60.92</ele><time>2023-09-27T10:33:31Z</time></trkpt><trkpt lat="51.7406116147" lon="-2.1625989955"><ele>58.32</ele><time>2023-09-27T10:33:51Z</time></trkpt><trkpt lat="51.7405412067" lon="-2.1628112253"><ele>56.18</ele><time>2023-09-27T10:34:14Z</time></trkpt><trkpt lat="51.7404589802" lon="-2.1629495267"><ele>55.43</ele><time>2023-09-27T10:34:34Z</time></trkpt><trkpt lat="51.7404049169" lon="-2.1631327551"><ele>55.06</ele><time>2023-09-27T10:34:54Z</time></trkpt><trkpt lat="51.7403152306" lon="-2.1633822005"><ele>54.43</ele><time>2023-09-27T10:35:14Z</time></trkpt><trkpt lat="51.7402483430" lon="-2.1635697037"><ele>53.67</ele><time>2023-09-27T10:35:37Z</time></trkpt><trkpt lat="51.7401418928" lon="-2.1638923232"><ele>53.07</ele><time>2023-09-27T10:36:00Z</time></trkpt><trkpt lat="51.7400446627" lon="-2.1640777308"><ele>52.61</ele><time>2023-09-27T10:36:18Z</time></trkpt><trkpt lat="51.7400231212" lon="-2.1641278546"><ele>52.81</ele><time>2023-09-27T10:36:38Z</time></trkpt><trkpt lat="51.7399780266" lon="-2.1642727777"><ele>53.24</ele><time>2023-09-27T10:36:57Z</time></trkpt><trkpt lat="51.7399571557" lon="-2.1644022781"><ele>54.01</ele><time>2023-09-27T10:37:18Z</time></trkpt><trkpt lat="51.7398831435" lon="-2.1645717602"><ele>54.94</ele><time>2023-09-27T10:37:39Z</time></trkpt><trkpt lat="51.7398110591" lon="-2.1648471896"><ele>55.17</ele><time>2023-09-27T10:38:00Z</time></trkpt><trkpt lat="51.7397284135" lon="-2.1650361177"><ele>54.50</ele><time>2023-09-27T10:38:20Z</time></trkpt><trkpt lat="51.7396823969" lon="-2.1651483513"><ele>54.48</ele><time>2023-09-27T10:38:39Z</time></trkpt><trkpt lat="51.7395941354" lon="-2.1653720643"><ele>54.50</ele><time>2023-09-27T10:38:57Z</time></trkpt><trkpt lat="51.7394974921" lon="-2.1655532811"><ele>54.12</ele><time>2023-09-27T10:39:17Z</time></trkpt><trkpt lat="51.7394248210" lon="-2.1657042392"><ele>53.71</ele><time>2023-09-27T10:39:39Z</time></trkpt><trkpt lat="51.7393512279" lon="-2.1658526827"><ele>53.77</ele><time>2023-09-27T10:40:02Z</time></trkpt><trkpt lat="51.7392132618" lon="-2.1660751384"><ele>53.97</ele><time>2023-09-27T10:40:23Z</time></trkpt><trkpt lat="51.7391202226" lon="-2.1662868652"><ele>54.09</ele><time>2023-09-27T10:40:45Z</time></trkpt><trkpt lat="51.7390452046" lon="-2.1664899588"><ele>54.71</ele><time>2023-09-27T10:41:04Z</time></trkpt><trkpt lat="51.7389702704" lon="-2.1666109934"><ele>54.49</ele><time>2023-09-27T10:41:26Z</time></trkpt><trkpt lat="51.7388536781" lon="-2.1668231394"><ele>54.19</ele><time>2023-09-27T10:41:44Z</time></trkpt><trkpt lat="51.7387619801" lon="-2.1669927891"><ele>53.72</ele><time>2023-09-27T10:42:03Z</time></trkpt><trkpt lat="51.7386221699" lon="-2.1671762690"><ele>53.65</ele><time>2023-09-27T10:42:22Z</time></trkpt><trkpt lat="51.7385298852" lon="-2.1672728285"><ele>52.32</ele><time>2023-09-27T10:42:41Z</time></trkpt><trkpt lat="51.7384242732" lon="-2.1673268918"><ele>50.81</ele><time>2023-09-27T10:43:04Z</time></trkpt><trkpt lat="51.7382090259" lon="-2.1673627663"><ele>50.60</ele><time>2023-09-27T10:43:24Z</time></trkpt><trkpt lat="51.7381550465" lon="-2.1673589945"><ele>50.10</ele><time>2023-09-27T10:43:44Z</time></trkpt><trkpt lat="51.7382117081" lon="-2.1673549712"><ele>49.89</ele><time>2023-09-27T10:44:06Z</time></trkpt><trkpt lat="51.7381944414" lon="-2.1673011594"><ele>50.69</ele><time>2023-09-27T10:44:26Z</time></trkpt><trkpt lat="51.7381936871" lon="-2.1672491916"><ele>50.48</ele><time>2023-09-27T10:44:48Z</time></trkpt><trkpt lat="51.7381760012" lon="-2.1672262251"><ele>50.83</ele><time>2023-09-27T10:45:12Z</time></trkpt><trkpt lat="51.7380627617" lon="-2.1672111377"><ele>53.07</ele><time>2023-09-27T10:45:31Z</time></trkpt><trkpt lat="51.7379501928" lon="-2.1672013309"><ele>55.25</ele><time>2023-09-27T10:45:52Z</time></trkpt><trkpt lat="51.7378742527" lon="-2.1671705693"><ele>57.08</ele><time>2023-09-27T10:46:12Z</time></trkpt><trkpt lat="51.7377883382" lon="-2.1670734230"><ele>59.60</ele><time>2023-09-27T10:46:37Z</time></trkpt><trkpt lat="51.7376930360" lon="-2.1669478621"><ele>61.48</ele><time>2023-09-27T10:46:58Z</time></trkpt><trkpt lat="51.7375983205" lon="-2.1668239776"><ele>63.15</ele><time>2023-09-27T10:47:20Z</time></trkpt><trkpt lat="51.7374937981" lon="-2.1667340398"><ele>63.94</ele><time>2023-09-27T10:47:42Z</time></trkpt><trkpt lat="51.7374259047" lon="-2.1667147614"><ele>65.35</ele><time>2023-09-27T10:48:04Z</time></trkpt><trkpt lat="51.7374017648" lon="-2.1666904539"><ele>66.52</ele><time>2023-09-27T10:48:29Z</time></trkpt><trkpt lat="51.7373927962" lon="-2.1666561719"><ele>67.29</ele><time>2023-09-27T10:48:52Z</time></trkpt><trkpt lat="51.7373884376" lon="-2.1666822396"><ele>67.05</ele><time>2023-09-27T10:49:15Z</time></trkpt><trkpt lat="51.7373829056" lon="-2.1666869335"><ele>69.21</ele><time>2023-09-27T10:49:25Z</time></trkpt><trkpt lat="51.7374139186" lon="-2.1666807309"><ele>68.31</ele><time>2023-09-27T10:49:48Z</time></trkpt><trkpt lat="51.7374646291" lon="-2.1666951478"><ele>66.72</ele><time>2023-09-27T10:50:13Z</time></trkpt><trkpt lat="51.7374288384" lon="-2.1666570101"><ele>67.52</ele><time>2023-09-27T10:50:39Z</time></trkpt><trkpt lat="51.7374953069" lon="-2.1665465366"><ele>66.39</ele><time>2023-09-27T10:51:15Z</time></trkpt><trkpt lat="51.7375733424" lon="-2.1664470434"><ele>66.39</ele><time>2023-09-27T10:51:34Z</time></trkpt><trkpt lat="51.7375927046" lon="-2.1663766354"><ele>66.39</ele><time>2023-09-27T10:51:56Z</time></trkpt><trkpt lat="51.7377534695" lon="-2.1662600432"><ele>66.39</ele><time>2023-09-27T10:52:56Z</time></trkpt><trkpt lat="51.7377819680" lon="-2.1662001126"><ele>66.39</ele><time>2023-09-27T10:53:13Z</time></trkpt><trkpt lat="51.7377957143" lon="-2.1661913954"><ele>70.29</ele><time>2023-09-27T10:53:18Z</time></trkpt><trkpt lat="51.7377958819" lon="-2.1661904734"><ele>70.55</ele><time>2023-09-27T10:53:19Z</time></trkpt><trkpt lat="51.7379048467" lon="-2.1661516652"><ele>71.81</ele><time>2023-09-27T10:53:40Z</time></trkpt><trkpt lat="51.7380023282" lon="-2.1660318878"><ele>74.02</ele><time>2023-09-27T10:54:02Z</time></trkpt><trkpt lat="51.7380779330" lon="-2.1659826022"><ele>76.47</ele><time>2023-09-27T10:54:17Z</time></trkpt><trkpt lat="51.7381845508" lon="-2.1658403613"><ele>78.66</ele><time>2023-09-27T10:54:43Z</time></trkpt><trkpt lat="51.7383878957" lon="-2.1656493377"><ele>80.72</ele><time>2023-09-27T10:55:08Z</time></trkpt><trkpt lat="51.7384504247" lon="-2.1655515209"><ele>81.71</ele><time>2023-09-27T10:55:29Z</time></trkpt><trkpt lat="51.7385105230" lon="-2.1653887443"><ele>83.11</ele><time>2023-09-27T10:55:50Z</time></trkpt><trkpt lat="51.7385993712" lon="-2.1651458368"><ele>84.95</ele><time>2023-09-27T10:56:16Z</time></trkpt><trkpt lat="51.7386592180" lon="-2.1648806334"><ele>86.37</ele><time>2023-09-27T10:56:40Z</time></trkpt><trkpt lat="51.7386709526" lon="-2.1648291685"><ele>86.29</ele><time>2023-09-27T10:57:02Z</time></trkpt><trkpt lat="51.7387127783" lon="-2.1646739356"><ele>87.07</ele><time>2023-09-27T10:57:20Z</time></trkpt><trkpt lat="51.7387274466" lon="-2.1645607799"><ele>87.24</ele><time>2023-09-27T10:57:40Z</time></trkpt><trkpt lat="51.7387494911" lon="-2.1645402443"><ele>86.95</ele><time>2023-09-27T10:57:58Z</time></trkpt><trkpt lat="51.7388126068" lon="-2.1644420084"><ele>86.24</ele><time>2023-09-27T10:58:24Z</time></trkpt><trkpt lat="51.7388821766" lon="-2.1643233206"><ele>87.16</ele><time>2023-09-27T10:58:39Z</time></trkpt><trkpt lat="51.7390148621" lon="-2.1640934050"><ele>87.82</ele><time>2023-09-27T10:59:01Z</time></trkpt><trkpt lat="51.7390686739" lon="-2.1639865357"><ele>87.63</ele><time>2023-09-27T10:59:19Z</time></trkpt><trkpt lat="51.7390954122" lon="-2.1639541816"><ele>87.47</ele><time>2023-09-27T10:59:42Z</time></trkpt><trkpt lat="51.7389973439" lon="-2.1640414372"><ele>87.84</ele><time>2023-09-27T11:00:00Z</time></trkpt><trkpt lat="51.7388956714" lon="-2.1642797347"><ele>86.67</ele><time>2023-09-27T11:00:26Z</time></trkpt><trkpt lat="51.7388221622" lon="-2.1643563453"><ele>86.64</ele><time>2023-09-27T11:00:37Z</time></trkpt><trkpt lat="51.7387627345" lon="-2.1644037869"><ele>86.47</ele><time>2023-09-27T11:00:48Z</time></trkpt><trkpt lat="51.7387086712" lon="-2.1646170225"><ele>86.59</ele><time>2023-09-27T11:01:10Z</time></trkpt><trkpt lat="51.7386990320" lon="-2.1645822376"><ele>87.12</ele><time>2023-09-27T11:01:33Z</time></trkpt><trkpt lat="51.7387344036" lon="-2.1644886956"><ele>87.59</ele><time>2023-09-27T11:01:52Z</time></trkpt><trkpt lat="51.7387389299" lon="-2.1642574389"><ele>90.56</ele><time>2023-09-27T11:02:17Z</time></trkpt><trkpt lat="51.7387834378" lon="-2.1640472207"><ele>92.90</ele><time>2023-09-27T11:02:39Z</time></trkpt><trkpt lat="51.7388017103" lon="-2.1638672613"><ele>96.01</ele><time>2023-09-27T11:02:58Z</time></trkpt><trkpt lat="51.7388530914" lon="-2.1636810154"><ele>98.76</ele><time>2023-09-27T11:03:20Z</time></trkpt><trkpt lat="51.7388774827" lon="-2.1635629144"><ele>101.66</ele><time>2023-09-27T11:03:41Z</time></trkpt><trkpt lat="51.7388730403" lon="-2.1634521056"><ele>103.77</ele><time>2023-09-27T11:04:02Z</time></trkpt><trkpt lat="51.7388271075" lon="-2.1634729765"><ele>104.27</ele><time>2023-09-27T11:04:26Z</time></trkpt><trkpt lat="51.7388551030" lon="-2.1634330787"><ele>104.06</ele><time>2023-09-27T11:04:49Z</time></trkpt><trkpt lat="51.7388996948" lon="-2.1633217670"><ele>104.36</ele><time>2023-09-27T11:05:10Z</time></trkpt><trkpt lat="51.7388978507" lon="-2.1632665303"><ele>104.70</ele><time>2023-09-27T11:05:29Z</time></trkpt><trkpt lat="51.7389661632" lon="-2.1631740779"><ele>105.18</ele><time>2023-09-27T11:05:48Z</time></trkpt><trkpt lat="51.7390266806" lon="-2.1630318370"><ele>105.72</ele><time>2023-09-27T11:06:07Z</time></trkpt><trkpt lat="51.7390481383" lon="-2.1629816294"><ele>106.22</ele><time>2023-09-27T11:06:28Z</time></trkpt><trkpt lat="51.7391203903" lon="-2.1628038492"><ele>108.37</ele><time>2023-09-27T11:06:48Z</time></trkpt><trkpt lat="51.7391180433" lon="-2.1627205331"><ele>109.41</ele><time>2023-09-27T11:07:12Z</time></trkpt><trkpt lat="51.7391015310" lon="-2.1626495384"><ele>109.49</ele><time>2023-09-27T11:07:37Z</time></trkpt><trkpt lat="51.7390841804" lon="-2.1624565031"><ele>110.29</ele><time>2023-09-27T11:08:00Z</time></trkpt><trkpt lat="51.7390540894" lon="-2.1623057965"><ele>113.19</ele><time>2023-09-27T11:08:21Z</time></trkpt><trkpt lat="51.7390179634" lon="-2.1622301918"><ele>115.21</ele><time>2023-09-27T11:08:37Z</time></trkpt><trkpt lat="51.7389823403" lon="-2.1621497255"><ele>117.13</ele><time>2023-09-27T11:08:53Z</time></trkpt><trkpt lat="51.7389071546" lon="-2.1621353086"><ele>119.12</ele><time>2023-09-27T11:09:15Z</time></trkpt><trkpt lat="51.7389621399" lon="-2.1619534213"><ele>119.74</ele><time>2023-09-27T11:09:41Z</time></trkpt><trkpt lat="51.7390176281" lon="-2.1617846936"><ele>120.32</ele><time>2023-09-27T11:09:57Z</time></trkpt><trkpt lat="51.7390205618" lon="-2.1615902334"><ele>121.90</ele><time>2023-09-27T11:10:14Z</time></trkpt><trkpt lat="51.7389596254" lon="-2.1614867169"><ele>123.48</ele><time>2023-09-27T11:10:35Z</time></trkpt><trkpt lat="51.7389195599" lon="-2.1613477450"><ele>125.30</ele><time>2023-09-27T11:10:49Z</time></trkpt><trkpt lat="51.7389152013" lon="-2.1613032371"><ele>127.08</ele><time>2023-09-27T11:11:08Z</time></trkpt><trkpt lat="51.7389313783" lon="-2.1611898299"><ele>129.23</ele><time>2023-09-27T11:11:27Z</time></trkpt><trkpt lat="51.7388935760" lon="-2.1610715613"><ele>129.33</ele><time>2023-09-27T11:11:51Z</time></trkpt><trkpt lat="51.7388512474" lon="-2.1609209385"><ele>130.78</ele><time>2023-09-27T11:12:11Z</time></trkpt><trkpt lat="51.7388653290" lon="-2.1608125605"><ele>131.60</ele><time>2023-09-27T11:12:32Z</time></trkpt><trkpt lat="51.7389407661" lon="-2.1607145760"><ele>131.36</ele><time>2023-09-27T11:12:53Z</time></trkpt><trkpt lat="51.7389846873" lon="-2.1606192738"><ele>130.34</ele><time>2023-09-27T11:13:13Z</time></trkpt><trkpt lat="51.7390096653" lon="-2.1605295036"><ele>129.59</ele><time>2023-09-27T11:13:31Z</time></trkpt><trkpt lat="51.7389487289" lon="-2.1606256440"><ele>130.69</ele><time>2023-09-27T11:13:49Z</time></trkpt><trkpt lat="51.7388104275" lon="-2.1608796157"><ele>131.84</ele><time>2023-09-27T11:14:08Z</time></trkpt><trkpt lat="51.7386779934" lon="-2.1610909235"><ele>132.67</ele><time>2023-09-27T11:14:31Z</time></trkpt><trkpt lat="51.7385529354" lon="-2.1613247786"><ele>133.63</ele><time>2023-09-27T11:14:50Z</time></trkpt><trkpt lat="51.7384342477" lon="-2.1614997089"><ele>134.89</ele><time>2023-09-27T11:15:12Z</time></trkpt><trkpt lat="51.7383782566" lon="-2.1615870483"><ele>135.28</ele><time>2023-09-27T11:15:36Z</time></trkpt><trkpt lat="51.7383575533" lon="-2.1615730505"><ele>135.99</ele><time>2023-09-27T11:15:56Z</time></trkpt><trkpt lat="51.7382319923" lon="-2.1614480764"><ele>137.48</ele><time>2023-09-27T11:16:17Z</time></trkpt><trkpt lat="51.7380668689" lon="-2.1613735612"><ele>140.52</ele><time>2023-09-27T11:16:35Z</time></trkpt><trkpt lat="51.7379743326" lon="-2.1614797600"><ele>143.01</ele><time>2023-09-27T11:16:57Z</time></trkpt><trkpt lat="51.7379352730" lon="-2.1613982879"><ele>143.23</ele><time>2023-09-27T11:17:17Z</time></trkpt><trkpt lat="51.7379794456" lon="-2.1612877306"><ele>144.56</ele><time>2023-09-27T11:17:34Z</time></trkpt><trkpt lat="51.7379553057" lon="-2.1611037478"><ele>144.94</ele><time>2023-09-27T11:17:56Z</time></trkpt><trkpt lat="51.7379952874" lon="-2.1608996484"><ele>146.34</ele><time>2023-09-27T11:18:18Z</time></trkpt><trkpt lat="51.7380218580" lon="-2.1607022546"><ele>147.64</ele><time>2023-09-27T11:18:39Z</time></trkpt><trkpt lat="51.7380193435" lon="-2.1606118139"><ele>148.19</ele><time>2023-09-27T11:19:01Z</time></trkpt><trkpt lat="51.7380242050" lon="-2.1604927909"><ele>149.20</ele><time>2023-09-27T11:19:33Z</time></trkpt><trkpt lat="51.7379619274" lon="-2.1603412461"><ele>149.89</ele><time>2023-09-27T11:19:51Z</time></trkpt><trkpt lat="51.7378956266" lon="-2.1601821575"><ele>151.39</ele><time>2023-09-27T11:20:13Z</time></trkpt><trkpt lat="51.7378749233" lon="-2.1600185428"><ele>152.78</ele><time>2023-09-27T11:20:36Z</time></trkpt><trkpt lat="51.7379172519" lon="-2.1599374898"><ele>153.85</ele><time>2023-09-27T11:21:04Z</time></trkpt><trkpt lat="51.7379600834" lon="-2.1598775592"><ele>153.26</ele><time>2023-09-27T11:21:25Z</time></trkpt><trkpt lat="51.7381231952" lon="-2.1598108392"><ele>152.32</ele><time>2023-09-27T11:21:40Z</time></trkpt><trkpt lat="51.7382334173" lon="-2.1598566044"><ele>151.08</ele><time>2023-09-27T11:21:58Z</time></trkpt><trkpt lat="51.7382573057" lon="-2.1600251645"><ele>149.29</ele><time>2023-09-27T11:22:19Z</time></trkpt><trkpt lat="51.7382656876" lon="-2.1600757912"><ele>148.98</ele><time>2023-09-27T11:22:41Z</time></trkpt><trkpt lat="51.7382465769" lon="-2.1600658167"><ele>149.83</ele><time>2023-09-27T11:23:05Z</time></trkpt><trkpt lat="51.7382491753" lon="-2.1600653976"><ele>149.87</ele><time>2023-09-27T11:23:07Z</time></trkpt></trkseg></trk></gpx>